Главная страница
METAR-TAF:

METAR-TAF

Аэропорты :

Му-и-Рана, Норвегия

широта: 66-22N, долгота: 014-18E, высота над уровнем моря: 7 м

Текущие метеонаблюдения

Эта сводка был подготовлена 34 минут назад, в 15:20 UTC
Ветер 3 Узел от западный-юго-западный, изменяющийся между юго-юго-восточный и западный
Температура 23°C
Влажность 41%
Давление 1009 hPa
Видимость 10 км и более

METAR: ENRA 221520Z AUTO 24003KT 150V280 9999 FEW071/// 23/09 Q1009

Время: 17:54 (15:54 UTC)

Прогноз

Эта сводка был подготовлена 7 часа и 54 минут назад, в 08:00 UTC
Прогноз действительный с 22-го 09 UTC до 22-го 16 UTC
Ветер 4 Узел от северный
Видимость 10 км и более
небольшая облачность на высоте 1500 фута
Отдельные облака на высоте 4000 фута
временами
С 22-го 09 UTC до 22-го 12 UTC
небольшая облачность на высоте 1500 фута, мощно-кучевые.

TAF: ENRA 220800Z 2209/2216 35004KT 9999 FEW015 SCT040 TEMPO 2209/2212 FEW015TCU

Метеонаблюдения и прогнозы для более 4000 аэропортов (сводки METAR и TAF).

Имеющиеся станции представлены на карте желтыми и красными точками.

Чтобы увидеть название станции, наведите на нее мышь.

Затем щелкните, чтобы увидеть метеонаблюдения и метеопрогнозы.

Управление картой: чтобы увеличить масштаб, щелкните зеленые кнопки с черным крестиком; чтобы уменьшить масштаб, щелкните зеленую кнопку с тире; для просмотра соседних карт щелкайте зеленые стрелки.


METAR-TAF: